sensor_id;sensor_type;location;lat;lon;timestamp;temperature;humidity
15103;DHT22;7652;53.584;9.998;2023-03-23T00:02:00;11.90;99.90
15103;DHT22;7652;53.584;9.998;2023-03-23T00:05:03;11.70;99.90
15103;DHT22;7652;53.584;9.998;2023-03-23T00:08:05;11.50;99.90
15103;DHT22;7652;53.584;9.998;2023-03-23T00:11:09;11.40;99.90
15103;DHT22;7652;53.584;9.998;2023-03-23T00:14:12;11.30;99.90
15103;DHT22;7652;53.584;9.998;2023-03-23T00:17:14;11.20;99.90
15103;DHT22;7652;53.584;9.998;2023-03-23T00:20:16;11.10;99.90
15103;DHT22;7652;53.584;9.998;2023-03-23T00:23:19;11.10;99.90
15103;DHT22;7652;53.584;9.998;2023-03-23T00:26:21;11.00;99.90
15103;DHT22;7652;53.584;9.998;2023-03-23T00:29:25;11.00;99.90
15103;DHT22;7652;53.584;9.998;2023-03-23T00:32:27;11.00;99.90
15103;DHT22;7652;53.584;9.998;2023-03-23T00:35:29;11.00;99.90
15103;DHT22;7652;53.584;9.998;2023-03-23T00:38:31;11.00;99.90
15103;DHT22;7652;53.584;9.998;2023-03-23T00:41:33;11.00;99.90
15103;DHT22;7652;53.584;9.998;2023-03-23T00:44:39;11.00;99.90
15103;DHT22;7652;53.584;9.998;2023-03-23T00:47:41;11.00;99.90
15103;DHT22;7652;53.584;9.998;2023-03-23T00:50:47;10.90;99.90
15103;DHT22;7652;53.584;9.998;2023-03-23T00:53:49;11.00;99.90
15103;DHT22;7652;53.584;9.998;2023-03-23T00:56:52;10.90;99.90
15103;DHT22;7652;53.584;9.998;2023-03-23T00:59:55;10.90;99.90
15103;DHT22;7652;53.584;9.998;2023-03-23T01:02:57;10.90;99.90
15103;DHT22;7652;53.584;9.998;2023-03-23T01:06:04;11.00;99.90
15103;DHT22;7652;53.584;9.998;2023-03-23T01:09:08;10.90;99.90
15103;DHT22;7652;53.584;9.998;2023-03-23T01:12:10;11.00;99.90
15103;DHT22;7652;53.584;9.998;2023-03-23T01:15:17;11.00;99.90
15103;DHT22;7652;53.584;9.998;2023-03-23T01:18:19;10.90;99.90
15103;DHT22;7652;53.584;9.998;2023-03-23T01:21:21;11.00;99.90
15103;DHT22;7652;53.584;9.998;2023-03-23T01:24:25;11.00;99.90
15103;DHT22;7652;53.584;9.998;2023-03-23T01:27:27;10.90;99.90
15103;DHT22;7652;53.584;9.998;2023-03-23T01:30:30;10.90;99.90
15103;DHT22;7652;53.584;9.998;2023-03-23T01:33:32;10.90;99.90
15103;DHT22;7652;53.584;9.998;2023-03-23T01:36:34;10.90;99.90
15103;DHT22;7652;53.584;9.998;2023-03-23T01:39:37;10.90;99.90
15103;DHT22;7652;53.584;9.998;2023-03-23T01:42:39;10.90;99.90
15103;DHT22;7652;53.584;9.998;2023-03-23T01:45:42;10.90;99.90
15103;DHT22;7652;53.584;9.998;2023-03-23T01:48:44;10.90;99.90
15103;DHT22;7652;53.584;9.998;2023-03-23T01:51:49;10.90;99.90
15103;DHT22;7652;53.584;9.998;2023-03-23T01:54:53;10.90;99.90
15103;DHT22;7652;53.584;9.998;2023-03-23T01:57:57;10.90;99.90
15103;DHT22;7652;53.584;9.998;2023-03-23T02:01:03;10.80;99.90
15103;DHT22;7652;53.584;9.998;2023-03-23T02:04:06;10.90;99.90
15103;DHT22;7652;53.584;9.998;2023-03-23T02:07:09;10.90;99.90
15103;DHT22;7652;53.584;9.998;2023-03-23T02:10:13;10.90;99.90
15103;DHT22;7652;53.584;9.998;2023-03-23T02:13:15;10.90;99.90
15103;DHT22;7652;53.584;9.998;2023-03-23T02:16:27;10.90;99.90
15103;DHT22;7652;53.584;9.998;2023-03-23T02:19:55;10.90;99.90
15103;DHT22;7652;53.584;9.998;2023-03-23T02:23:24;10.90;99.90
15103;DHT22;7652;53.584;9.998;2023-03-23T02:26:41;10.90;99.90
15103;DHT22;7652;53.584;9.998;2023-03-23T03:07:40;10.80;99.90
15103;DHT22;7652;53.584;9.998;2023-03-23T03:10:52;11.00;99.90
15103;DHT22;7652;53.584;9.998;2023-03-23T03:13:58;11.00;99.90
15103;DHT22;7652;53.584;9.998;2023-03-23T03:17:05;11.00;99.90
15103;DHT22;7652;53.584;9.998;2023-03-23T03:20:09;11.00;99.90
15103;DHT22;7652;53.584;9.998;2023-03-23T03:23:15;11.00;99.90
15103;DHT22;7652;53.584;9.998;2023-03-23T03:26:17;11.00;99.90
15103;DHT22;7652;53.584;9.998;2023-03-23T03:29:23;11.10;99.90
15103;DHT22;7652;53.584;9.998;2023-03-23T03:32:31;11.10;99.90
15103;DHT22;7652;53.584;9.998;2023-03-23T03:35:38;11.10;99.90
15103;DHT22;7652;53.584;9.998;2023-03-23T03:38:44;11.10;99.90
15103;DHT22;7652;53.584;9.998;2023-03-23T03:41:46;11.10;99.90
15103;DHT22;7652;53.584;9.998;2023-03-23T03:44:47;11.10;99.90
15103;DHT22;7652;53.584;9.998;2023-03-23T03:47:49;11.20;99.90
15103;DHT22;7652;53.584;9.998;2023-03-23T03:50:51;11.10;99.90
15103;DHT22;7652;53.584;9.998;2023-03-23T03:53:58;11.20;99.90
15103;DHT22;7652;53.584;9.998;2023-03-23T03:57:00;11.20;99.90
15103;DHT22;7652;53.584;9.998;2023-03-23T04:00:02;11.30;99.90
15103;DHT22;7652;53.584;9.998;2023-03-23T04:03:14;11.30;99.90
15103;DHT22;7652;53.584;9.998;2023-03-23T04:06:17;11.30;99.90
15103;DHT22;7652;53.584;9.998;2023-03-23T04:09:20;11.30;99.90
15103;DHT22;7652;53.584;9.998;2023-03-23T04:12:23;11.30;99.90
15103;DHT22;7652;53.584;9.998;2023-03-23T04:15:25;11.40;99.90
15103;DHT22;7652;53.584;9.998;2023-03-23T04:18:27;11.40;99.90
15103;DHT22;7652;53.584;9.998;2023-03-23T04:21:29;11.40;99.90
15103;DHT22;7652;53.584;9.998;2023-03-23T04:24:33;11.40;99.90
15103;DHT22;7652;53.584;9.998;2023-03-23T04:27:36;11.40;99.90
15103;DHT22;7652;53.584;9.998;2023-03-23T04:30:38;11.40;99.90
15103;DHT22;7652;53.584;9.998;2023-03-23T04:33:43;11.40;99.90
15103;DHT22;7652;53.584;9.998;2023-03-23T04:36:46;11.40;99.90
15103;DHT22;7652;53.584;9.998;2023-03-23T04:39:50;11.40;99.90
15103;DHT22;7652;53.584;9.998;2023-03-23T04:43:00;11.40;99.90
15103;DHT22;7652;53.584;9.998;2023-03-23T04:46:06;11.30;99.90
15103;DHT22;7652;53.584;9.998;2023-03-23T04:49:09;11.40;99.90
15103;DHT22;7652;53.584;9.998;2023-03-23T04:52:11;11.30;99.90
15103;DHT22;7652;53.584;9.998;2023-03-23T04:55:14;11.40;99.90
15103;DHT22;7652;53.584;9.998;2023-03-23T04:58:16;11.40;99.90
15103;DHT22;7652;53.584;9.998;2023-03-23T05:01:18;11.40;99.90
15103;DHT22;7652;53.584;9.998;2023-03-23T05:04:20;11.40;99.90
15103;DHT22;7652;53.584;9.998;2023-03-23T05:07:23;11.40;99.90
15103;DHT22;7652;53.584;9.998;2023-03-23T05:10:26;11.40;99.90
15103;DHT22;7652;53.584;9.998;2023-03-23T05:13:28;11.40;99.90
15103;DHT22;7652;53.584;9.998;2023-03-23T05:16:30;11.50;99.90
15103;DHT22;7652;53.584;9.998;2023-03-23T05:19:32;11.50;99.90
15103;DHT22;7652;53.584;9.998;2023-03-23T05:22:34;11.50;99.90
15103;DHT22;7652;53.584;9.998;2023-03-23T05:25:38;11.50;99.90
15103;DHT22;7652;53.584;9.998;2023-03-23T05:28:41;11.50;99.90
15103;DHT22;7652;53.584;9.998;2023-03-23T05:31:43;11.50;99.90
15103;DHT22;7652;53.584;9.998;2023-03-23T05:34:45;11.50;99.90
15103;DHT22;7652;53.584;9.998;2023-03-23T05:37:47;11.50;99.90
15103;DHT22;7652;53.584;9.998;2023-03-23T05:40:50;11.50;99.90
15103;DHT22;7652;53.584;9.998;2023-03-23T05:43:53;11.50;99.90
15103;DHT22;7652;53.584;9.998;2023-03-23T05:46:55;11.50;99.90
15103;DHT22;7652;53.584;9.998;2023-03-23T05:49:58;11.50;99.90
15103;DHT22;7652;53.584;9.998;2023-03-23T05:53:01;11.50;99.90
15103;DHT22;7652;53.584;9.998;2023-03-23T05:56:06;11.50;99.90
15103;DHT22;7652;53.584;9.998;2023-03-23T05:59:09;11.50;99.90
15103;DHT22;7652;53.584;9.998;2023-03-23T06:02:11;11.50;99.90
15103;DHT22;7652;53.584;9.998;2023-03-23T06:05:14;11.50;99.90
15103;DHT22;7652;53.584;9.998;2023-03-23T06:08:16;11.40;99.90
15103;DHT22;7652;53.584;9.998;2023-03-23T06:11:19;11.40;99.90
15103;DHT22;7652;53.584;9.998;2023-03-23T06:14:21;11.40;99.90
15103;DHT22;7652;53.584;9.998;2023-03-23T06:17:23;11.40;99.90
15103;DHT22;7652;53.584;9.998;2023-03-23T06:20:25;11.40;99.90
15103;DHT22;7652;53.584;9.998;2023-03-23T06:23:27;11.40;99.90
15103;DHT22;7652;53.584;9.998;2023-03-23T06:26:34;11.40;99.90
15103;DHT22;7652;53.584;9.998;2023-03-23T06:29:37;11.40;99.90
15103;DHT22;7652;53.584;9.998;2023-03-23T06:32:40;11.40;99.90
15103;DHT22;7652;53.584;9.998;2023-03-23T06:35:44;11.40;99.90
15103;DHT22;7652;53.584;9.998;2023-03-23T06:38:45;11.50;99.90
15103;DHT22;7652;53.584;9.998;2023-03-23T06:41:49;11.50;99.90
15103;DHT22;7652;53.584;9.998;2023-03-23T06:44:52;11.60;99.90
15103;DHT22;7652;53.584;9.998;2023-03-23T06:47:57;11.70;99.90
15103;DHT22;7652;53.584;9.998;2023-03-23T06:50:59;11.80;99.90
15103;DHT22;7652;53.584;9.998;2023-03-23T06:54:01;11.90;99.90
15103;DHT22;7652;53.584;9.998;2023-03-23T06:57:04;12.00;99.90
15103;DHT22;7652;53.584;9.998;2023-03-23T07:00:07;12.10;99.90
15103;DHT22;7652;53.584;9.998;2023-03-23T07:03:12;12.20;99.90
15103;DHT22;7652;53.584;9.998;2023-03-23T07:06:14;12.30;99.90
15103;DHT22;7652;53.584;9.998;2023-03-23T07:09:17;12.40;99.90
15103;DHT22;7652;53.584;9.998;2023-03-23T07:12:20;12.50;99.90
15103;DHT22;7652;53.584;9.998;2023-03-23T07:15:22;12.50;99.90
15103;DHT22;7652;53.584;9.998;2023-03-23T07:18:24;12.70;99.90
15103;DHT22;7652;53.584;9.998;2023-03-23T07:21:27;12.90;99.90
15103;DHT22;7652;53.584;9.998;2023-03-23T07:24:29;13.00;99.90
15103;DHT22;7652;53.584;9.998;2023-03-23T07:27:32;13.00;99.90
15103;DHT22;7652;53.584;9.998;2023-03-23T07:30:34;13.00;99.90
15103;DHT22;7652;53.584;9.998;2023-03-23T07:33:36;13.00;99.90
15103;DHT22;7652;53.584;9.998;2023-03-23T07:36:39;13.10;99.90
15103;DHT22;7652;53.584;9.998;2023-03-23T07:39:41;13.30;99.90
15103;DHT22;7652;53.584;9.998;2023-03-23T07:42:46;13.40;99.90
15103;DHT22;7652;53.584;9.998;2023-03-23T07:45:52;13.60;99.90
15103;DHT22;7652;53.584;9.998;2023-03-23T07:48:54;13.80;99.90
15103;DHT22;7652;53.584;9.998;2023-03-23T07:51:57;13.90;99.90
15103;DHT22;7652;53.584;9.998;2023-03-23T07:54:59;13.80;99.90
15103;DHT22;7652;53.584;9.998;2023-03-23T07:58:03;13.50;99.90
15103;DHT22;7652;53.584;9.998;2023-03-23T08:01:05;13.10;99.90
15103;DHT22;7652;53.584;9.998;2023-03-23T08:04:07;12.90;99.90
15103;DHT22;7652;53.584;9.998;2023-03-23T08:07:09;12.80;99.90
15103;DHT22;7652;53.584;9.998;2023-03-23T08:10:13;12.60;99.90
15103;DHT22;7652;53.584;9.998;2023-03-23T08:13:17;12.60;99.90
15103;DHT22;7652;53.584;9.998;2023-03-23T08:16:18;12.60;99.90
15103;DHT22;7652;53.584;9.998;2023-03-23T08:19:20;12.50;99.90
15103;DHT22;7652;53.584;9.998;2023-03-23T08:22:22;12.40;99.90
15103;DHT22;7652;53.584;9.998;2023-03-23T08:25:25;12.40;99.90
15103;DHT22;7652;53.584;9.998;2023-03-23T08:28:28;12.30;99.90
15103;DHT22;7652;53.584;9.998;2023-03-23T08:31:30;12.20;99.90
15103;DHT22;7652;53.584;9.998;2023-03-23T08:34:33;11.90;99.90
15103;DHT22;7652;53.584;9.998;2023-03-23T08:37:36;11.40;99.90
15103;DHT22;7652;53.584;9.998;2023-03-23T08:40:37;11.30;99.90
15103;DHT22;7652;53.584;9.998;2023-03-23T08:43:41;11.20;99.90
15103;DHT22;7652;53.584;9.998;2023-03-23T08:46:44;11.20;99.90
15103;DHT22;7652;53.584;9.998;2023-03-23T08:49:46;11.20;99.90
15103;DHT22;7652;53.584;9.998;2023-03-23T08:52:53;11.50;99.90
15103;DHT22;7652;53.584;9.998;2023-03-23T08:55:56;11.80;99.90
15103;DHT22;7652;53.584;9.998;2023-03-23T08:58:59;12.20;99.90
15103;DHT22;7652;53.584;9.998;2023-03-23T09:02:01;12.40;99.90
15103;DHT22;7652;53.584;9.998;2023-03-23T09:05:03;12.40;99.90
15103;DHT22;7652;53.584;9.998;2023-03-23T09:08:05;12.60;99.90
15103;DHT22;7652;53.584;9.998;2023-03-23T09:11:09;12.70;99.90
15103;DHT22;7652;53.584;9.998;2023-03-23T09:14:13;12.90;99.90
15103;DHT22;7652;53.584;9.998;2023-03-23T09:17:15;13.20;99.90
15103;DHT22;7652;53.584;9.998;2023-03-23T09:20:18;13.20;99.90
15103;DHT22;7652;53.584;9.998;2023-03-23T09:23:21;13.20;99.90
15103;DHT22;7652;53.584;9.998;2023-03-23T09:26:23;13.00;99.90
15103;DHT22;7652;53.584;9.998;2023-03-23T09:29:26;12.90;99.90
15103;DHT22;7652;53.584;9.998;2023-03-23T09:32:28;12.80;99.90
15103;DHT22;7652;53.584;9.998;2023-03-23T09:35:32;12.70;99.90
15103;DHT22;7652;53.584;9.998;2023-03-23T09:38:34;12.70;99.90
15103;DHT22;7652;53.584;9.998;2023-03-23T09:41:49;12.60;99.90
15103;DHT22;7652;53.584;9.998;2023-03-23T09:45:06;12.60;99.90
15103;DHT22;7652;53.584;9.998;2023-03-23T09:48:24;12.70;99.90
15103;DHT22;7652;53.584;9.998;2023-03-23T09:51:42;12.90;99.90
15103;DHT22;7652;53.584;9.998;2023-03-23T09:54:47;13.00;99.90
15103;DHT22;7652;53.584;9.998;2023-03-23T09:57:55;13.20;99.90
15103;DHT22;7652;53.584;9.998;2023-03-23T10:01:04;13.70;99.90
15103;DHT22;7652;53.584;9.998;2023-03-23T10:04:12;14.30;99.90
15103;DHT22;7652;53.584;9.998;2023-03-23T10:07:18;14.90;99.90
15103;DHT22;7652;53.584;9.998;2023-03-23T10:10:21;14.90;99.90
15103;DHT22;7652;53.584;9.998;2023-03-23T10:13:40;14.90;99.90
15103;DHT22;7652;53.584;9.998;2023-03-23T10:16:51;14.80;99.90
15103;DHT22;7652;53.584;9.998;2023-03-23T10:20:05;15.00;99.90
15103;DHT22;7652;53.584;9.998;2023-03-23T10:23:33;15.00;99.90
15103;DHT22;7652;53.584;9.998;2023-03-23T10:26:43;15.20;99.90
15103;DHT22;7652;53.584;9.998;2023-03-23T10:29:52;15.10;99.90
15103;DHT22;7652;53.584;9.998;2023-03-23T10:33:02;15.00;99.90
15103;DHT22;7652;53.584;9.998;2023-03-23T10:36:07;14.80;99.90
15103;DHT22;7652;53.584;9.998;2023-03-23T10:39:13;15.20;99.90
15103;DHT22;7652;53.584;9.998;2023-03-23T10:42:22;16.10;99.90
15103;DHT22;7652;53.584;9.998;2023-03-23T10:45:27;16.40;99.90
15103;DHT22;7652;53.584;9.998;2023-03-23T10:48:37;16.70;99.90
15103;DHT22;7652;53.584;9.998;2023-03-23T10:51:42;16.70;99.90
15103;DHT22;7652;53.584;9.998;2023-03-23T10:54:50;16.30;99.90
15103;DHT22;7652;53.584;9.998;2023-03-23T10:58:01;15.80;99.90
15103;DHT22;7652;53.584;9.998;2023-03-23T11:01:04;15.50;99.90
15103;DHT22;7652;53.584;9.998;2023-03-23T11:04:12;15.30;99.90
15103;DHT22;7652;53.584;9.998;2023-03-23T11:07:26;15.20;99.90
15103;DHT22;7652;53.584;9.998;2023-03-23T11:10:36;15.20;99.90
15103;DHT22;7652;53.584;9.998;2023-03-23T11:13:41;15.30;99.90
15103;DHT22;7652;53.584;9.998;2023-03-23T11:16:49;15.50;99.90
15103;DHT22;7652;53.584;9.998;2023-03-23T11:19:54;15.60;99.90
15103;DHT22;7652;53.584;9.998;2023-03-23T11:22:56;15.60;99.90
15103;DHT22;7652;53.584;9.998;2023-03-23T11:26:10;15.60;99.90
15103;DHT22;7652;53.584;9.998;2023-03-23T11:29:15;15.60;99.90
15103;DHT22;7652;53.584;9.998;2023-03-23T11:32:19;15.40;99.90
15103;DHT22;7652;53.584;9.998;2023-03-23T11:35:27;15.20;99.90
15103;DHT22;7652;53.584;9.998;2023-03-23T11:38:30;15.10;99.90
15103;DHT22;7652;53.584;9.998;2023-03-23T11:41:37;15.20;99.90
15103;DHT22;7652;53.584;9.998;2023-03-23T11:44:42;15.40;99.90
15103;DHT22;7652;53.584;9.998;2023-03-23T11:47:53;15.30;99.90
15103;DHT22;7652;53.584;9.998;2023-03-23T11:51:01;15.20;99.90
15103;DHT22;7652;53.584;9.998;2023-03-23T11:54:09;15.00;99.90
15103;DHT22;7652;53.584;9.998;2023-03-23T11:57:13;15.00;99.90
15103;DHT22;7652;53.584;9.998;2023-03-23T12:00:17;14.90;99.90
15103;DHT22;7652;53.584;9.998;2023-03-23T12:03:36;14.70;99.90
15103;DHT22;7652;53.584;9.998;2023-03-23T12:06:52;14.60;99.90
15103;DHT22;7652;53.584;9.998;2023-03-23T12:10:02;14.60;99.90
15103;DHT22;7652;53.584;9.998;2023-03-23T12:13:15;14.50;99.90
15103;DHT22;7652;53.584;9.998;2023-03-23T12:16:24;14.40;99.90
15103;DHT22;7652;53.584;9.998;2023-03-23T12:19:36;14.50;99.90
15103;DHT22;7652;53.584;9.998;2023-03-23T12:22:52;14.50;99.90
15103;DHT22;7652;53.584;9.998;2023-03-23T12:26:19;14.40;99.90
15103;DHT22;7652;53.584;9.998;2023-03-23T12:29:33;14.20;99.90
15103;DHT22;7652;53.584;9.998;2023-03-23T12:32:51;14.10;99.90
15103;DHT22;7652;53.584;9.998;2023-03-23T12:36:06;14.00;99.90
15103;DHT22;7652;53.584;9.998;2023-03-23T12:39:46;14.00;99.90
15103;DHT22;7652;53.584;9.998;2023-03-23T12:42:54;14.00;99.90
15103;DHT22;7652;53.584;9.998;2023-03-23T12:46:09;14.00;99.90
15103;DHT22;7652;53.584;9.998;2023-03-23T12:49:19;13.90;99.90
15103;DHT22;7652;53.584;9.998;2023-03-23T12:52:23;14.00;99.90
15103;DHT22;7652;53.584;9.998;2023-03-23T12:55:32;14.10;99.90
15103;DHT22;7652;53.584;9.998;2023-03-23T12:58:45;14.40;99.90
15103;DHT22;7652;53.584;9.998;2023-03-23T13:01:50;14.50;99.90
15103;DHT22;7652;53.584;9.998;2023-03-23T13:05:00;14.70;99.90
15103;DHT22;7652;53.584;9.998;2023-03-23T13:08:09;16.20;99.90
15103;DHT22;7652;53.584;9.998;2023-03-23T13:11:19;18.20;99.90
15103;DHT22;7652;53.584;9.998;2023-03-23T13:14:34;19.40;99.90
15103;DHT22;7652;53.584;9.998;2023-03-23T13:17:46;20.10;99.90
15103;DHT22;7652;53.584;9.998;2023-03-23T13:20:57;21.00;99.90
15103;DHT22;7652;53.584;9.998;2023-03-23T13:24:03;20.70;99.90
15103;DHT22;7652;53.584;9.998;2023-03-23T13:27:08;20.10;99.90
15103;DHT22;7652;53.584;9.998;2023-03-23T13:30:21;19.00;99.90
15103;DHT22;7652;53.584;9.998;2023-03-23T13:33:25;18.40;99.90
15103;DHT22;7652;53.584;9.998;2023-03-23T13:36:34;18.30;99.90
15103;DHT22;7652;53.584;9.998;2023-03-23T13:39:47;17.80;99.90
15103;DHT22;7652;53.584;9.998;2023-03-23T13:42:53;17.30;99.90
15103;DHT22;7652;53.584;9.998;2023-03-23T13:46:11;16.90;99.90
15103;DHT22;7652;53.584;9.998;2023-03-23T13:49:19;16.80;99.90
15103;DHT22;7652;53.584;9.998;2023-03-23T13:52:36;16.40;99.90
15103;DHT22;7652;53.584;9.998;2023-03-23T13:55:42;16.20;99.90
15103;DHT22;7652;53.584;9.998;2023-03-23T13:58:47;15.90;99.90
15103;DHT22;7652;53.584;9.998;2023-03-23T14:01:49;15.70;99.90
15103;DHT22;7652;53.584;9.998;2023-03-23T14:04:52;15.30;99.90
15103;DHT22;7652;53.584;9.998;2023-03-23T14:07:57;14.60;99.90
15103;DHT22;7652;53.584;9.998;2023-03-23T14:11:01;13.90;99.90
15103;DHT22;7652;53.584;9.998;2023-03-23T14:14:07;13.00;99.90
15103;DHT22;7652;53.584;9.998;2023-03-23T14:17:18;12.40;99.90
15103;DHT22;7652;53.584;9.998;2023-03-23T14:20:25;11.50;99.90
15103;DHT22;7652;53.584;9.998;2023-03-23T14:23:31;11.10;99.90
15103;DHT22;7652;53.584;9.998;2023-03-23T14:26:34;11.00;99.90
15103;DHT22;7652;53.584;9.998;2023-03-23T14:29:38;11.10;99.90
15103;DHT22;7652;53.584;9.998;2023-03-23T14:32:41;11.20;99.90
15103;DHT22;7652;53.584;9.998;2023-03-23T14:35:43;11.30;99.90
15103;DHT22;7652;53.584;9.998;2023-03-23T14:38:47;11.60;99.90
15103;DHT22;7652;53.584;9.998;2023-03-23T14:41:49;11.60;99.90
15103;DHT22;7652;53.584;9.998;2023-03-23T14:44:53;11.50;99.90
15103;DHT22;7652;53.584;9.998;2023-03-23T14:47:58;11.60;99.90
15103;DHT22;7652;53.584;9.998;2023-03-23T14:51:02;11.60;99.90
15103;DHT22;7652;53.584;9.998;2023-03-23T14:54:08;11.60;99.90
15103;DHT22;7652;53.584;9.998;2023-03-23T14:57:13;11.40;99.90
15103;DHT22;7652;53.584;9.998;2023-03-23T15:00:21;11.30;99.90
15103;DHT22;7652;53.584;9.998;2023-03-23T15:03:24;11.50;99.90
15103;DHT22;7652;53.584;9.998;2023-03-23T15:06:32;11.60;99.90
15103;DHT22;7652;53.584;9.998;2023-03-23T15:09:39;11.80;99.90
15103;DHT22;7652;53.584;9.998;2023-03-23T15:12:43;11.80;99.90
15103;DHT22;7652;53.584;9.998;2023-03-23T15:15:47;11.90;99.90
15103;DHT22;7652;53.584;9.998;2023-03-23T15:18:51;11.90;99.90
15103;DHT22;7652;53.584;9.998;2023-03-23T15:21:56;11.90;99.90
15103;DHT22;7652;53.584;9.998;2023-03-23T15:25:03;11.90;99.90
15103;DHT22;7652;53.584;9.998;2023-03-23T15:28:16;12.00;99.90
15103;DHT22;7652;53.584;9.998;2023-03-23T15:31:23;12.00;99.90
15103;DHT22;7652;53.584;9.998;2023-03-23T15:34:30;12.10;99.90
15103;DHT22;7652;53.584;9.998;2023-03-23T15:37:33;12.10;99.90
15103;DHT22;7652;53.584;9.998;2023-03-23T15:40:37;12.20;99.90
15103;DHT22;7652;53.584;9.998;2023-03-23T15:43:49;12.30;99.90
15103;DHT22;7652;53.584;9.998;2023-03-23T15:47:01;12.40;99.90
15103;DHT22;7652;53.584;9.998;2023-03-23T15:50:11;12.40;99.90
15103;DHT22;7652;53.584;9.998;2023-03-23T15:53:25;12.50;99.90
15103;DHT22;7652;53.584;9.998;2023-03-23T15:56:27;12.50;99.90
15103;DHT22;7652;53.584;9.998;2023-03-23T15:59:30;12.50;99.90
15103;DHT22;7652;53.584;9.998;2023-03-23T16:02:34;12.50;99.90
15103;DHT22;7652;53.584;9.998;2023-03-23T16:05:38;12.40;99.90
15103;DHT22;7652;53.584;9.998;2023-03-23T16:08:41;12.30;99.90
15103;DHT22;7652;53.584;9.998;2023-03-23T16:11:55;12.40;99.90
15103;DHT22;7652;53.584;9.998;2023-03-23T16:14:58;12.40;99.90
15103;DHT22;7652;53.584;9.998;2023-03-23T16:18:02;12.30;99.90
15103;DHT22;7652;53.584;9.998;2023-03-23T16:21:06;12.40;99.90
15103;DHT22;7652;53.584;9.998;2023-03-23T16:24:09;12.40;99.90
15103;DHT22;7652;53.584;9.998;2023-03-23T16:27:13;12.40;99.90
15103;DHT22;7652;53.584;9.998;2023-03-23T16:30:18;12.30;99.90
15103;DHT22;7652;53.584;9.998;2023-03-23T16:33:22;12.30;99.90
15103;DHT22;7652;53.584;9.998;2023-03-23T16:36:25;12.40;99.90
15103;DHT22;7652;53.584;9.998;2023-03-23T16:39:28;12.40;99.90
15103;DHT22;7652;53.584;9.998;2023-03-23T16:42:31;12.40;99.90
15103;DHT22;7652;53.584;9.998;2023-03-23T16:45:35;12.40;99.90
15103;DHT22;7652;53.584;9.998;2023-03-23T16:48:39;12.30;99.90
15103;DHT22;7652;53.584;9.998;2023-03-23T16:51:42;12.20;99.90
15103;DHT22;7652;53.584;9.998;2023-03-23T16:54:45;12.20;99.90
15103;DHT22;7652;53.584;9.998;2023-03-23T16:57:48;12.30;99.90
15103;DHT22;7652;53.584;9.998;2023-03-23T17:00:51;12.40;99.90
15103;DHT22;7652;53.584;9.998;2023-03-23T17:03:56;12.40;99.90
15103;DHT22;7652;53.584;9.998;2023-03-23T17:06:59;12.40;99.90
15103;DHT22;7652;53.584;9.998;2023-03-23T17:10:02;12.40;99.90
15103;DHT22;7652;53.584;9.998;2023-03-23T17:13:07;12.40;99.90
15103;DHT22;7652;53.584;9.998;2023-03-23T17:16:10;12.40;99.90
15103;DHT22;7652;53.584;9.998;2023-03-23T17:19:15;12.40;99.90
15103;DHT22;7652;53.584;9.998;2023-03-23T17:22:17;12.50;99.90
15103;DHT22;7652;53.584;9.998;2023-03-23T17:25:21;12.50;99.90
15103;DHT22;7652;53.584;9.998;2023-03-23T17:28:23;12.50;99.90
15103;DHT22;7652;53.584;9.998;2023-03-23T17:31:27;12.50;99.90
15103;DHT22;7652;53.584;9.998;2023-03-23T17:34:31;12.50;99.90
15103;DHT22;7652;53.584;9.998;2023-03-23T17:37:35;12.50;99.90
15103;DHT22;7652;53.584;9.998;2023-03-23T17:40:38;12.50;99.90
15103;DHT22;7652;53.584;9.998;2023-03-23T17:43:41;12.50;99.90
15103;DHT22;7652;53.584;9.998;2023-03-23T17:46:44;12.50;99.90
15103;DHT22;7652;53.584;9.998;2023-03-23T17:49:48;12.50;99.90
15103;DHT22;7652;53.584;9.998;2023-03-23T17:52:51;12.30;99.90
15103;DHT22;7652;53.584;9.998;2023-03-23T17:55:55;12.30;99.90
15103;DHT22;7652;53.584;9.998;2023-03-23T17:58:58;12.20;99.90
15103;DHT22;7652;53.584;9.998;2023-03-23T18:02:01;12.10;99.90
15103;DHT22;7652;53.584;9.998;2023-03-23T18:05:06;12.10;99.90
15103;DHT22;7652;53.584;9.998;2023-03-23T18:08:10;12.00;99.90
15103;DHT22;7652;53.584;9.998;2023-03-23T18:11:13;12.00;99.90
15103;DHT22;7652;53.584;9.998;2023-03-23T18:14:16;11.90;99.90
15103;DHT22;7652;53.584;9.998;2023-03-23T18:17:19;11.90;99.90
15103;DHT22;7652;53.584;9.998;2023-03-23T18:20:23;11.80;99.90
15103;DHT22;7652;53.584;9.998;2023-03-23T18:23:27;11.70;99.90
15103;DHT22;7652;53.584;9.998;2023-03-23T18:26:30;11.60;99.90
15103;DHT22;7652;53.584;9.998;2023-03-23T18:29:33;11.60;99.90
15103;DHT22;7652;53.584;9.998;2023-03-23T18:32:36;11.60;99.90
15103;DHT22;7652;53.584;9.998;2023-03-23T18:35:41;11.60;99.90
15103;DHT22;7652;53.584;9.998;2023-03-23T18:38:45;11.50;99.90
15103;DHT22;7652;53.584;9.998;2023-03-23T18:41:48;11.50;99.90
15103;DHT22;7652;53.584;9.998;2023-03-23T18:44:52;11.50;99.90
15103;DHT22;7652;53.584;9.998;2023-03-23T18:47:55;11.50;99.90
15103;DHT22;7652;53.584;9.998;2023-03-23T18:51:00;11.60;99.90
15103;DHT22;7652;53.584;9.998;2023-03-23T18:54:03;11.70;99.90
15103;DHT22;7652;53.584;9.998;2023-03-23T18:57:06;11.70;99.90
15103;DHT22;7652;53.584;9.998;2023-03-23T19:00:10;11.70;99.90
15103;DHT22;7652;53.584;9.998;2023-03-23T19:03:13;11.70;99.90
15103;DHT22;7652;53.584;9.998;2023-03-23T19:06:20;11.70;99.90
15103;DHT22;7652;53.584;9.998;2023-03-23T19:09:23;11.80;99.90
15103;DHT22;7652;53.584;9.998;2023-03-23T19:12:26;11.80;99.90
15103;DHT22;7652;53.584;9.998;2023-03-23T19:15:29;11.80;99.90
15103;DHT22;7652;53.584;9.998;2023-03-23T19:18:33;11.70;99.90
15103;DHT22;7652;53.584;9.998;2023-03-23T19:21:38;11.70;99.90
15103;DHT22;7652;53.584;9.998;2023-03-23T19:24:41;11.70;99.90
15103;DHT22;7652;53.584;9.998;2023-03-23T19:27:44;11.70;99.90
15103;DHT22;7652;53.584;9.998;2023-03-23T19:31:07;11.70;99.90
15103;DHT22;7652;53.584;9.998;2023-03-23T19:34:11;11.70;99.90
15103;DHT22;7652;53.584;9.998;2023-03-23T19:37:15;11.80;99.90
15103;DHT22;7652;53.584;9.998;2023-03-23T19:40:18;11.80;99.90
15103;DHT22;7652;53.584;9.998;2023-03-23T19:43:41;11.80;99.90
15103;DHT22;7652;53.584;9.998;2023-03-23T19:46:44;11.90;99.90
15103;DHT22;7652;53.584;9.998;2023-03-23T19:49:48;11.90;99.90
15103;DHT22;7652;53.584;9.998;2023-03-23T19:52:53;11.90;99.90
15103;DHT22;7652;53.584;9.998;2023-03-23T19:56:00;11.90;99.90
15103;DHT22;7652;53.584;9.998;2023-03-23T19:59:05;11.90;99.90
15103;DHT22;7652;53.584;9.998;2023-03-23T20:02:11;12.00;99.90
15103;DHT22;7652;53.584;9.998;2023-03-23T20:05:15;12.00;99.90
15103;DHT22;7652;53.584;9.998;2023-03-23T20:08:20;11.90;99.90
15103;DHT22;7652;53.584;9.998;2023-03-23T20:11:23;11.90;99.90
15103;DHT22;7652;53.584;9.998;2023-03-23T20:14:26;11.80;99.90
15103;DHT22;7652;53.584;9.998;2023-03-23T20:17:29;11.80;99.90
15103;DHT22;7652;53.584;9.998;2023-03-23T20:20:32;11.80;99.90
15103;DHT22;7652;53.584;9.998;2023-03-23T20:23:40;11.70;99.90
15103;DHT22;7652;53.584;9.998;2023-03-23T20:26:43;11.60;99.90